Time;durP1;ratioP1;P1;durP2;ratioP2;P2;SDS_P1;SDS_P2;PMS_P1;PMS_P2;Temp;Humidity;BMP_temperature;BMP_pressure;BME280_temperature;BME280_humidity;BME280_pressure;Samples;Min_cycle;Max_cycle;Signal;HPM_P1;HPM_P2
2024/01/04 00:01:13;;;;;;;3.55;1.17;;;12.90;70.80;14.50;99254.00;;;;5031952;28;20204;-72
2024/01/04 00:03:58;;;;;;;3.88;0.90;;;12.90;70.80;14.40;99260.00;;;;5032755;28;20200;-72
2024/01/04 00:06:25;;;;;;;2.90;0.70;;;12.90;70.90;14.50;99271.00;;;;5026424;28;20203;-72
2024/01/04 00:08:53;;;;;;;1.42;0.70;;;12.90;70.80;14.50;99269.00;;;;5015343;28;20232;-72
2024/01/04 00:11:20;;;;;;;3.97;1.10;;;12.90;70.80;14.50;99284.00;;;;5031470;28;20196;-73
2024/01/04 00:13:47;;;;;;;1.65;0.93;;;12.90;70.80;14.50;99285.00;;;;5031523;28;20200;-73
2024/01/04 00:16:15;;;;;;;2.15;0.68;;;12.90;70.90;14.50;99281.00;;;;5031601;28;20216;-72
2024/01/04 00:18:44;;;;;;;3.03;0.98;;;12.90;70.90;14.50;99282.00;;;;5031741;28;20274;-72
2024/01/04 00:21:14;;;;;;;4.65;1.08;;;12.90;70.80;14.50;99290.00;;;;5032149;28;20201;-72
2024/01/04 00:23:41;;;;;;;6.18;0.88;;;13.00;70.80;14.50;99298.00;;;;5031714;28;20670;-72
2024/01/04 00:26:09;;;;;;;1.73;0.43;;;12.90;70.70;14.50;99304.00;;;;5031588;28;20200;-73
2024/01/04 00:28:36;;;;;;;4.72;0.80;;;12.90;70.70;14.50;99312.00;;;;5031240;28;20208;-72
2024/01/04 00:31:03;;;;;;;2.50;0.60;;;13.00;70.80;14.60;99313.00;;;;5031351;28;20188;-72
2024/01/04 00:33:30;;;;;;;2.65;0.57;;;12.90;70.70;14.60;99326.00;;;;5031599;28;20188;-72
2024/01/04 00:35:57;;;;;;;1.75;0.60;;;12.90;70.60;14.60;99327.00;;;;5031299;28;20223;-73
2024/01/04 00:38:24;;;;;;;3.88;0.77;;;12.90;70.60;14.60;99331.00;;;;5031975;28;20239;-72
2024/01/04 00:40:51;;;;;;;1.00;0.43;;;13.00;70.70;14.60;99338.00;;;;5031156;28;20246;-73
2024/01/04 00:43:20;;;;;;;1.17;0.40;;;13.00;70.50;14.50;99342.00;;;;5031570;28;20196;-72
2024/01/04 00:45:47;;;;;;;3.42;0.90;;;12.90;70.40;14.50;99346.00;;;;5031665;28;20208;-72
2024/01/04 00:48:14;;;;;;;1.05;0.38;;;12.90;70.40;14.50;99341.00;;;;5031633;28;20580;-73
2024/01/04 00:50:42;;;;;;;2.15;0.70;;;12.90;70.30;14.50;99352.00;;;;5031545;28;20287;-72
2024/01/04 00:53:09;;;;;;;3.80;0.60;;;12.90;70.30;14.50;99354.00;;;;5031922;28;20195;-72
2024/01/04 00:55:36;;;;;;;1.75;0.63;;;12.90;70.30;14.50;99352.00;;;;5047164;28;20665;-73
2024/01/04 00:58:03;;;;;;;3.65;0.90;;;12.90;70.20;14.40;99356.00;;;;5046740;28;20303;-72
2024/01/04 01:00:32;;;;;;;0.52;0.38;;;12.90;70.20;14.40;99367.00;;;;5035449;28;20224;-73
2024/01/04 01:02:59;;;;;;;3.03;0.77;;;12.90;70.20;14.40;99376.00;;;;5034975;28;20288;-73
2024/01/04 01:05:26;;;;;;;2.50;0.73;;;12.90;70.20;14.40;99385.00;;;;5034626;28;20209;-73
2024/01/04 01:07:53;;;;;;;1.73;0.60;;;12.90;70.20;14.40;99393.00;;;;5034983;28;20200;-73
2024/01/04 01:10:20;;;;;;;3.50;0.88;;;12.80;70.20;14.40;99393.00;;;;5034644;28;20193;-73
2024/01/04 01:12:47;;;;;;;1.63;0.65;;;12.80;70.20;14.40;99398.00;;;;5035326;28;20560;-73
2024/01/04 01:15:14;;;;;;;2.05;0.55;;;12.80;70.20;14.40;99412.00;;;;5035231;28;20200;-72
2024/01/04 01:17:43;;;;;;;1.70;0.60;;;12.80;70.20;14.30;99416.00;;;;5034576;28;20189;-73
2024/01/04 01:20:12;;;;;;;2.40;0.90;;;12.80;70.20;14.40;99419.00;;;;5035364;28;20207;-72
2024/01/04 01:22:39;;;;;;;0.98;0.45;;;12.80;70.20;14.40;99418.00;;;;5034707;28;20199;-72
2024/01/04 01:25:07;;;;;;;3.00;0.95;;;12.80;70.30;14.40;99427.00;;;;5034732;28;20207;-73
2024/01/04 01:27:34;;;;;;;3.25;0.98;;;12.80;70.30;14.40;99427.00;;;;5022121;28;20204;-73
2024/01/04 01:30:01;;;;;;;2.58;1.05;;;12.80;70.40;14.40;99430.00;;;;5046394;28;20191;-73
2024/01/04 01:32:28;;;;;;;3.10;0.95;;;12.70;70.40;14.40;99431.00;;;;5034522;28;20295;-73
2024/01/04 01:34:57;;;;;;;1.90;0.93;;;12.80;70.40;14.40;99435.00;;;;5034946;28;20247;-73
2024/01/04 01:37:24;;;;;;;2.67;1.15;;;12.80;70.50;14.40;99446.00;;;;5034003;28;20283;-74
2024/01/04 01:39:51;;;;;;;3.22;1.35;;;12.80;70.50;14.40;99441.00;;;;5034771;28;20254;-73
2024/01/04 01:42:20;;;;;;;3.58;1.33;;;12.80;70.50;14.40;99448.00;;;;5034421;28;20192;-73
2024/01/04 01:44:47;;;;;;;5.60;1.92;;;12.80;70.50;14.40;99448.00;;;;5034248;28;20267;-73
2024/01/04 01:47:16;;;;;;;3.50;1.40;;;12.80;70.50;14.40;99457.00;;;;5050009;28;20204;-73
2024/01/04 01:49:43;;;;;;;3.65;1.00;;;12.80;70.50;14.40;99466.00;;;;5034258;28;20199;-73
2024/01/04 01:52:11;;;;;;;3.60;1.48;;;12.80;70.40;14.40;99472.00;;;;5034043;28;20207;-73
2024/01/04 01:54:39;;;;;;;2.50;1.25;;;12.70;70.40;14.40;99479.00;;;;5034961;28;20200;-73
2024/01/04 01:57:06;;;;;;;3.22;1.52;;;12.80;70.50;14.30;99477.00;;;;5033711;28;20665;-73
2024/01/04 01:59:33;;;;;;;3.60;1.48;;;12.70;70.40;14.30;99495.00;;;;5034290;28;20634;-73
2024/01/04 02:02:00;;;;;;;8.95;1.88;;;12.70;70.40;14.30;99497.00;;;;5033574;28;20666;-72
2024/01/04 02:04:27;;;;;;;4.53;1.55;;;12.70;70.50;14.30;99500.00;;;;5041503;28;20196;-73
2024/01/04 02:06:56;;;;;;;3.58;1.48;;;12.70;70.50;14.30;99506.00;;;;5032491;28;20197;-73
2024/01/04 02:09:24;;;;;;;3.67;1.60;;;12.70;70.60;14.30;99508.00;;;;5027912;28;20228;-73
2024/01/04 02:11:51;;;;;;;2.85;1.30;;;12.70;70.60;14.30;99501.00;;;;5034179;28;20205;-73
2024/01/04 02:14:18;;;;;;;1.90;1.30;;;12.70;70.60;14.30;99504.00;;;;5033122;28;20193;-73
2024/01/04 02:16:45;;;;;;;1.98;1.08;;;12.70;70.60;14.30;99514.00;;;;5034323;28;20227;-73
2024/01/04 02:19:13;;;;;;;7.20;1.40;;;12.70;70.50;14.30;99521.00;;;;5033934;28;20307;-73
2024/01/04 02:21:41;;;;;;;3.05;1.20;;;12.70;70.50;14.30;99521.00;;;;5034114;28;20192;-73
2024/01/04 02:24:09;;;;;;;4.38;1.17;;;12.70;70.50;14.30;99521.00;;;;5033231;28;20203;-73
2024/01/04 02:26:36;;;;;;;5.32;1.63;;;12.70;70.60;14.30;99528.00;;;;5034056;28;20295;-73
2024/01/04 02:29:03;;;;;;;4.45;1.60;;;12.70;70.50;14.30;99533.00;;;;5033743;28;20295;-72
2024/01/04 02:31:31;;;;;;;2.95;1.23;;;12.70;70.50;14.30;99543.00;;;;5033206;28;20206;-72
2024/01/04 02:33:57;;;;;;;5.93;1.42;;;12.70;70.50;14.30;99550.00;;;;5033231;28;20744;-73
2024/01/04 02:36:26;;;;;;;4.97;1.30;;;12.70;70.50;14.20;99554.00;;;;5034528;28;20227;-73
2024/01/04 02:38:53;;;;;;;5.07;1.20;;;12.70;70.50;14.20;99549.00;;;;5046548;28;20227;-73
2024/01/04 02:41:22;;;;;;;3.15;1.23;;;12.60;70.50;14.20;99556.00;;;;5033336;28;20291;-73
2024/01/04 02:43:49;;;;;;;3.35;1.48;;;12.60;70.50;14.20;99557.00;;;;5033163;28;20185;-73
2024/01/04 02:46:16;;;;;;;1.88;1.33;;;12.70;70.60;14.20;99556.00;;;;5033005;28;20211;-72
2024/01/04 02:48:46;;;;;;;2.70;1.10;;;12.60;70.60;14.20;99571.00;;;;5032841;28;20203;-73
2024/01/04 02:51:13;;;;;;;3.17;1.10;;;12.60;70.60;14.20;99573.00;;;;5032876;28;20201;-73
2024/01/04 02:53:40;;;;;;;3.65;1.52;;;12.60;70.60;14.20;99572.00;;;;5033896;28;20205;-72
2024/01/04 02:56:07;;;;;;;3.30;1.20;;;12.60;71.30;14.20;99573.00;;;;5033073;28;20200;-73
2024/01/04 02:58:35;;;;;;;2.58;1.27;;;12.60;70.70;14.20;99573.00;;;;5025434;28;20720;-73
2024/01/04 03:01:03;;;;;;;2.95;1.33;;;12.60;71.40;14.30;99584.00;;;;5020068;28;20194;-72
2024/01/04 03:03:30;;;;;;;2.45;1.10;;;12.60;70.70;14.20;99577.00;;;;5036354;28;20200;-73
2024/01/04 03:05:57;;;;;;;1.70;0.88;;;12.60;70.70;14.20;99586.00;;;;5033142;28;20295;-73
2024/01/04 03:08:24;;;;;;;2.08;1.00;;;12.60;70.70;14.20;99582.00;;;;5043800;28;20692;-72
2024/01/04 03:10:51;;;;;;;1.77;1.00;;;12.60;70.60;14.20;99586.00;;;;5042443;28;20202;-73
2024/01/04 03:13:18;;;;;;;1.38;0.63;;;12.60;70.60;14.20;99588.00;;;;5041973;28;20669;-73
2024/01/04 03:15:47;;;;;;;5.55;1.08;;;12.60;70.50;14.20;99594.00;;;;5031910;28;20871;-73
2024/01/04 03:18:14;;;;;;;1.83;0.80;;;12.60;70.60;14.20;99605.00;;;;5032515;28;20228;-73
2024/01/04 03:20:41;;;;;;;1.88;0.68;;;12.60;70.70;14.20;99608.00;;;;5032633;28;20679;-73
2024/01/04 03:23:08;;;;;;;2.65;0.95;;;12.60;70.70;14.20;99606.00;;;;5032150;28;20193;-73
2024/01/04 03:25:35;;;;;;;1.88;0.80;;;12.60;70.70;14.20;99613.00;;;;5033028;28;20664;-73
2024/01/04 03:28:02;;;;;;;2.00;0.85;;;12.60;70.80;14.20;99624.00;;;;5039394;28;20609;-73
2024/01/04 03:30:29;;;;;;;5.07;1.30;;;12.60;70.80;14.30;99632.00;;;;5050182;28;20360;-73
2024/01/04 03:32:57;;;;;;;2.40;1.00;;;12.60;70.80;14.30;99628.00;;;;5032533;28;20193;-73
2024/01/04 03:35:24;;;;;;;4.57;1.10;;;12.60;70.80;14.30;99631.00;;;;5031860;28;20228;-73
2024/01/04 03:37:51;;;;;;;2.25;1.00;;;12.60;70.80;14.30;99619.00;;;;5032366;28;20192;-73
2024/01/04 03:40:18;;;;;;;2.67;0.80;;;12.60;70.70;14.20;99628.00;;;;5031839;28;20221;-73
2024/01/04 03:42:45;;;;;;;2.10;1.00;;;12.60;70.70;14.30;99631.00;;;;5027546;28;20681;-73
2024/01/04 03:45:12;;;;;;;1.52;0.82;;;12.60;70.70;14.30;99633.00;;;;5031959;28;20296;-73
2024/01/04 03:47:39;;;;;;;1.00;0.55;;;12.60;70.70;14.30;99633.00;;;;5018587;28;20192;-73
2024/01/04 03:50:09;;;;;;;1.80;1.10;;;12.60;70.60;14.30;99639.00;;;;5032238;28;20291;-73
2024/01/04 03:52:36;;;;;;;2.80;0.93;;;12.60;70.60;14.30;99632.00;;;;5031919;28;20662;-73
2024/01/04 03:55:03;;;;;;;3.47;0.98;;;12.60;70.60;14.30;99628.00;;;;5031682;28;20204;-73
2024/01/04 03:57:30;;;;;;;2.42;0.95;;;12.60;70.50;14.30;99635.00;;;;5021384;28;20194;-73
2024/01/04 03:59:57;;;;;;;3.63;1.35;;;12.50;70.50;14.20;99629.00;;;;5031426;28;20216;-72
2024/01/04 04:02:24;;;;;;;2.95;0.90;;;12.50;70.50;14.30;99631.00;;;;5039192;28;20195;-73
2024/01/04 04:04:51;;;;;;;2.67;1.10;;;12.60;70.60;14.30;99632.00;;;;5040278;28;20197;-72
2024/01/04 04:07:20;;;;;;;2.63;0.98;;;12.50;70.60;14.30;99640.00;;;;5031425;28;20585;-72
2024/01/04 04:09:47;;;;;;;2.72;1.00;;;12.60;70.60;14.30;99653.00;;;;5031548;28;20192;-73
2024/01/04 04:12:14;;;;;;;1.88;0.90;;;12.50;70.60;14.30;99660.00;;;;5031270;28;20192;-72
2024/01/04 04:14:42;;;;;;;4.60;1.10;;;12.60;70.70;14.30;99656.00;;;;5031661;28;20622;-72
2024/01/04 04:17:09;;;;;;;4.53;1.13;;;12.50;70.60;14.30;99659.00;;;;5031352;28;20804;-72
2024/01/04 04:19:37;;;;;;;1.67;0.95;;;12.50;70.60;14.30;99658.00;;;;5032275;28;20693;-72
2024/01/04 04:22:04;;;;;;;2.20;1.38;;;12.60;70.70;14.30;99663.00;;;;5031408;28;20212;-72
2024/01/04 04:24:32;;;;;;;2.30;0.75;;;12.60;70.70;14.30;99667.00;;;;5031433;28;20210;-73
2024/01/04 04:26:59;;;;;;;2.97;1.02;;;12.60;70.70;14.30;99673.00;;;;5031178;28;20196;-73
2024/01/04 04:29:27;;;;;;;1.80;1.20;;;12.50;70.60;14.30;99678.00;;;;5030075;28;20200;-74
2024/01/04 04:31:55;;;;;;;3.55;1.02;;;12.60;70.60;14.30;99674.00;;;;5031415;28;20192;-73
2024/01/04 04:34:22;;;;;;;2.42;0.90;;;12.60;70.60;14.30;99680.00;;;;5031700;28;20661;-73
2024/01/04 04:36:49;;;;;;;2.47;1.15;;;12.50;70.50;14.30;99690.00;;;;5032329;28;20200;-72
2024/01/04 04:39:16;;;;;;;1.30;0.88;;;12.50;70.50;14.30;99688.00;;;;5030921;28;20220;-72
2024/01/04 04:41:45;;;;;;;1.38;0.68;;;12.60;70.60;14.30;99689.00;;;;5031322;28;20197;-72
2024/01/04 04:44:12;;;;;;;1.63;0.70;;;12.60;70.60;14.20;99712.00;;;;5030462;28;20220;-72
2024/01/04 04:46:39;;;;;;;1.70;0.88;;;12.50;70.40;14.20;99701.00;;;;5031546;28;20580;-72
2024/01/04 04:49:07;;;;;;;3.00;0.98;;;12.50;70.40;14.30;99699.00;;;;5030892;28;20196;-73
2024/01/04 04:51:34;;;;;;;1.85;0.73;;;12.50;70.40;14.20;99711.00;;;;5031546;28;20219;-73
2024/01/04 04:54:03;;;;;;;1.00;0.60;;;12.50;70.40;14.30;99705.00;;;;5031567;28;20192;-72
2024/01/04 04:56:30;;;;;;;2.58;0.90;;;12.50;70.40;14.20;99708.00;;;;5031035;28;20204;-72
2024/01/04 04:58:58;;;;;;;1.83;0.75;;;12.50;70.50;14.20;99718.00;;;;5031481;28;20199;-73
2024/01/04 05:01:25;;;;;;;3.58;0.90;;;12.50;70.50;14.20;99722.00;;;;5030846;28;20693;-73
2024/01/04 05:03:52;;;;;;;1.23;0.70;;;12.50;70.40;14.20;99713.00;;;;5037733;28;20295;-73
2024/01/04 05:06:19;;;;;;;1.67;0.75;;;12.50;70.40;14.20;99723.00;;;;5030793;28;20674;-73
2024/01/04 05:08:46;;;;;;;1.30;0.70;;;12.50;70.40;14.20;99729.00;;;;5030611;28;20291;-73
2024/01/04 05:11:13;;;;;;;2.08;0.80;;;12.50;70.40;14.20;99716.00;;;;5030831;28;20652;-73
2024/01/04 05:13:40;;;;;;;1.95;0.88;;;12.50;70.40;14.20;99732.00;;;;5031180;28;20192;-73
2024/01/04 05:16:08;;;;;;;2.30;0.88;;;12.50;70.40;14.20;99741.00;;;;5030900;28;20238;-73
2024/01/04 05:18:35;;;;;;;1.50;0.80;;;12.50;70.50;14.20;99736.00;;;;5030825;28;20203;-72
2024/01/04 05:21:03;;;;;;;1.25;0.70;;;12.50;70.50;14.30;99737.00;;;;5030882;28;20216;-72
2024/01/04 05:23:33;;;;;;;2.55;1.00;;;12.50;70.50;14.20;99745.00;;;;5030928;28;20201;-73
2024/01/04 05:26:01;;;;;;;2.55;0.90;;;12.50;70.50;14.30;99747.00;;;;5030990;28;20576;-72
2024/01/04 05:28:28;;;;;;;0.98;0.60;;;12.50;70.50;14.30;99749.00;;;;5031407;28;20193;-73
2024/01/04 05:30:55;;;;;;;2.03;0.70;;;12.50;70.60;14.30;99754.00;;;;5031223;28;20192;-73
2024/01/04 05:33:23;;;;;;;1.05;0.50;;;12.50;70.60;14.30;99764.00;;;;5030950;28;20287;-72
2024/01/04 05:35:51;;;;;;;2.67;0.70;;;12.50;70.60;14.30;99755.00;;;;5030961;28;20224;-72
2024/01/04 05:38:18;;;;;;;1.75;0.60;;;12.50;70.60;14.30;99753.00;;;;5030510;28;20219;-73
2024/01/04 05:40:45;;;;;;;1.30;0.80;;;12.50;70.60;14.30;99764.00;;;;5033866;28;20223;-73
2024/01/04 05:43:12;;;;;;;1.15;0.60;;;12.50;70.60;14.30;99766.00;;;;5034649;28;20196;-73
2024/01/04 05:45:39;;;;;;;1.27;0.88;;;12.50;70.60;14.30;99781.00;;;;5040053;28;20287;-73
2024/01/04 05:48:07;;;;;;;2.22;0.80;;;12.50;70.70;14.40;99780.00;;;;5034701;28;20200;-73
2024/01/04 05:50:35;;;;;;;2.53;0.70;;;12.60;70.70;14.30;99781.00;;;;5034065;28;20220;-73
2024/01/04 05:53:02;;;;;;;2.58;0.95;;;12.50;70.60;14.40;99784.00;;;;5033860;28;20657;-73
2024/01/04 05:55:30;;;;;;;1.40;0.52;;;12.60;70.70;14.40;99788.00;;;;5034335;28;20196;-73
2024/01/04 05:57:57;;;;;;;1.52;0.57;;;12.50;70.60;14.40;99794.00;;;;5034076;28;20222;-73
2024/01/04 06:00:24;;;;;;;1.20;1.10;;;12.60;70.70;14.40;99795.00;;;;5034871;28;20224;-73
2024/01/04 06:02:51;;;;;;;3.75;1.00;;;12.60;70.70;14.40;99796.00;;;;5043481;28;20628;-73
2024/01/04 06:05:18;;;;;;;1.00;0.80;;;12.60;70.60;14.40;99801.00;;;;5035391;28;20284;-72
2024/01/04 06:07:46;;;;;;;2.42;1.00;;;12.60;70.50;14.40;99797.00;;;;5034105;28;20288;-73
2024/01/04 06:10:13;;;;;;;2.03;0.70;;;12.60;70.50;14.30;99805.00;;;;5033350;28;20239;-73
2024/01/04 06:12:42;;;;;;;0.90;0.70;;;12.60;70.40;14.30;99807.00;;;;5033748;28;20287;-73
2024/01/04 06:15:10;;;;;;;2.60;0.90;;;12.60;70.40;14.30;99812.00;;;;5034070;28;20196;-72
2024/01/04 06:17:38;;;;;;;1.38;1.00;;;12.60;70.50;14.30;99820.00;;;;5034528;28;20216;-73
2024/01/04 06:20:06;;;;;;;1.63;0.88;;;12.60;70.50;14.30;99818.00;;;;5033906;28;20628;-72
2024/01/04 06:22:33;;;;;;;1.83;0.70;;;12.60;70.50;14.40;99825.00;;;;5033761;28;20280;-72
2024/01/04 06:25:01;;;;;;;1.45;0.90;;;12.60;70.50;14.30;99824.00;;;;5033384;28;20192;-73
2024/01/04 06:27:28;;;;;;;1.10;0.75;;;12.60;70.40;14.30;99835.00;;;;5033957;28;20206;-72
2024/01/04 06:29:55;;;;;;;1.63;0.63;;;12.60;70.40;14.30;99838.00;;;;5033428;28;20207;-73
2024/01/04 06:32:22;;;;;;;1.00;0.50;;;12.60;70.40;14.30;99838.00;;;;5033716;28;20214;-73
2024/01/04 06:34:49;;;;;;;1.25;0.77;;;12.60;70.30;14.30;99845.00;;;;5036495;28;20730;-72
2024/01/04 06:37:16;;;;;;;2.53;0.70;;;12.60;70.20;14.20;99845.00;;;;5032826;28;20197;-72
2024/01/04 06:39:44;;;;;;;3.85;0.70;;;12.60;70.20;14.20;99848.00;;;;5033297;28;20224;-73
2024/01/04 06:42:14;;;;;;;2.75;0.68;;;12.50;70.20;14.20;99853.00;;;;5033747;28;20200;-72
2024/01/04 06:44:41;;;;;;;0.50;0.40;;;12.50;70.10;14.20;99860.00;;;;5033396;28;20199;-73
2024/01/04 06:47:08;;;;;;;0.90;0.43;;;12.50;70.10;14.20;99860.00;;;;5032696;28;20222;-73
2024/01/04 06:49:35;;;;;;;2.65;0.90;;;12.50;70.20;14.20;99860.00;;;;5032788;28;20203;-73
2024/01/04 06:52:02;;;;;;;1.58;0.50;;;12.50;70.30;14.20;99862.00;;;;5032947;28;20629;-73
2024/01/04 06:54:29;;;;;;;1.17;1.00;;;12.50;70.30;14.20;99866.00;;;;5032963;28;20214;-73
2024/01/04 06:56:56;;;;;;;0.82;0.50;;;12.50;70.40;14.20;99863.00;;;;5033042;28;20192;-73
2024/01/04 06:59:26;;;;;;;0.90;0.35;;;12.50;70.40;14.20;99876.00;;;;5032637;28;20192;-74
2024/01/04 07:01:53;;;;;;;4.05;0.80;;;12.50;70.40;14.20;99882.00;;;;5034219;28;20219;-73
2024/01/04 07:04:20;;;;;;;1.52;0.50;;;12.50;70.70;14.30;99885.00;;;;5035156;28;20197;-73
2024/01/04 07:06:47;;;;;;;1.33;0.70;;;12.50;70.50;14.30;99892.00;;;;5032701;28;20750;-73
2024/01/04 07:09:14;;;;;;;0.93;0.60;;;12.40;70.50;14.30;99894.00;;;;5041478;28;20593;-73
2024/01/04 07:11:41;;;;;;;1.48;0.63;;;12.50;70.50;14.30;99898.00;;;;5047264;28;20291;-73
2024/01/04 07:14:10;;;;;;;1.92;0.60;;;12.50;70.60;14.30;99906.00;;;;5032657;28;20204;-73
2024/01/04 07:16:44;;;;;;;2.15;0.40;;;12.50;70.60;14.20;99908.00;;;;5032842;28;20217;-73
2024/01/04 07:19:12;;;;;;;1.20;0.63;;;12.50;70.60;14.30;99909.00;;;;5032690;28;20556;-72
2024/01/04 07:21:40;;;;;;;2.20;0.68;;;12.50;70.60;14.30;99918.00;;;;5032490;28;20230;-73
2024/01/04 07:24:07;;;;;;;1.17;0.63;;;12.50;70.60;14.30;99921.00;;;;5032111;28;20283;-72
2024/01/04 07:26:34;;;;;;;1.25;0.55;;;12.50;70.60;14.30;99915.00;;;;5032909;28;20200;-73
2024/01/04 07:29:01;;;;;;;1.00;0.90;;;12.50;70.50;14.30;99922.00;;;;5032361;28;20215;-72
2024/01/04 07:31:28;;;;;;;1.05;0.50;;;12.50;70.50;14.30;99932.00;;;;5032435;28;20207;-73
2024/01/04 07:33:57;;;;;;;4.32;0.75;;;12.50;70.50;14.30;99933.00;;;;5031869;28;20191;-73
2024/01/04 07:36:24;;;;;;;1.08;0.63;;;12.50;70.50;14.30;99935.00;;;;5022534;28;20232;-73
2024/01/04 07:38:51;;;;;;;3.85;0.82;;;12.50;70.50;14.30;99935.00;;;;5018484;28;20195;-73
2024/01/04 07:41:18;;;;;;;3.05;0.80;;;12.50;70.50;14.30;99933.00;;;;5032067;28;20736;-72
2024/01/04 07:43:45;;;;;;;1.83;0.80;;;12.50;70.60;14.30;99944.00;;;;5039551;28;20291;-73
2024/01/04 07:46:12;;;;;;;1.63;0.90;;;12.50;70.60;14.30;99945.00;;;;5029365;28;20669;-73
2024/01/04 07:48:39;;;;;;;2.75;0.80;;;12.50;70.60;14.40;99946.00;;;;5016477;28;20295;-73
2024/01/04 07:51:07;;;;;;;1.10;0.85;;;12.50;70.60;14.30;99954.00;;;;5032027;28;20200;-73
2024/01/04 07:53:34;;;;;;;1.42;0.82;;;12.50;70.60;14.30;99954.00;;;;5031469;28;20196;-73
2024/01/04 07:56:01;;;;;;;3.58;1.10;;;12.50;71.30;14.40;99948.00;;;;5031554;28;20282;-73
2024/01/04 07:58:28;;;;;;;2.00;1.00;;;12.50;70.60;14.40;99958.00;;;;5031798;28;20198;-73
2024/01/04 08:00:56;;;;;;;1.38;0.90;;;12.60;70.70;14.40;99963.00;;;;5023275;28;20224;-73
2024/01/04 08:03:23;;;;;;;2.72;1.58;;;12.50;70.60;14.40;99956.00;;;;5042995;28;20196;-74
2024/01/04 08:05:50;;;;;;;1.67;1.00;;;12.60;70.70;14.40;99962.00;;;;5031539;28;20197;-72
2024/01/04 08:08:18;;;;;;;3.30;1.10;;;12.60;70.60;14.40;99955.00;;;;5031472;28;20584;-73
2024/01/04 08:10:45;;;;;;;2.40;1.15;;;12.60;70.60;14.40;99957.00;;;;5031776;28;20200;-72
2024/01/04 08:13:16;;;;;;;2.33;1.25;;;12.60;70.70;14.40;99962.00;;;;5031673;28;20279;-73
2024/01/04 08:15:43;;;;;;;1.85;1.15;;;12.60;70.70;14.40;99962.00;;;;5031549;28;20250;-73
2024/01/04 08:18:10;;;;;;;2.47;1.48;;;12.60;70.70;14.40;99973.00;;;;5030061;28;20208;-72
2024/01/04 08:20:37;;;;;;;1.50;1.23;;;12.60;70.80;14.40;99973.00;;;;5031353;28;20208;-74
2024/01/04 08:23:04;;;;;;;1.88;1.48;;;12.60;70.80;14.50;99974.00;;;;5031351;28;20212;-73
2024/01/04 08:25:33;;;;;;;2.20;1.23;;;12.60;70.80;14.40;99980.00;;;;5030800;28;20192;-73
2024/01/04 08:28:00;;;;;;;1.73;1.25;;;12.60;70.80;14.50;99981.00;;;;5031629;28;20302;-73
2024/01/04 08:30:27;;;;;;;2.58;1.10;;;12.60;70.70;14.50;99986.00;;;;5031415;28;20192;-72
2024/01/04 08:32:54;;;;;;;3.30;1.20;;;12.60;70.70;14.50;99981.00;;;;5031106;28;20286;-73
2024/01/04 08:35:21;;;;;;;1.83;1.48;;;12.60;70.80;14.50;99983.00;;;;5035461;28;20621;-73
2024/01/04 08:37:49;;;;;;;2.20;1.60;;;12.60;70.70;14.50;99986.00;;;;5031246;28;21170;-73
2024/01/04 08:40:17;;;;;;;1.95;1.20;;;12.70;70.80;14.50;99991.00;;;;5030737;28;20219;-73
2024/01/04 08:42:45;;;;;;;1.95;1.48;;;12.70;70.70;14.50;99991.00;;;;5031818;28;20200;-73
2024/01/04 08:45:13;;;;;;;1.80;1.15;;;12.70;70.70;14.60;99998.00;;;;5030605;28;20291;-73
2024/01/04 08:47:40;;;;;;;2.35;1.27;;;12.70;70.80;14.60;99992.00;;;;5031477;28;20196;-73
2024/01/04 08:50:10;;;;;;;3.03;1.10;;;12.70;70.80;14.60;99998.00;;;;5030792;28;20202;-73
2024/01/04 08:52:37;;;;;;;1.60;1.27;;;12.70;70.90;14.60;100002.00;;;;5030371;28;20549;-73
2024/01/04 08:55:06;;;;;;;2.40;1.55;;;12.70;70.80;14.60;100004.00;;;;5031450;28;20207;-73
2024/01/04 08:57:34;;;;;;;2.33;1.40;;;12.70;70.90;14.60;100010.00;;;;5011354;28;20576;-73
2024/01/04 09:00:02;;;;;;;4.20;1.60;;;12.70;70.90;14.60;100011.00;;;;5027169;28;20609;-73
2024/01/04 09:02:29;;;;;;;4.00;1.52;;;12.80;70.90;14.60;100014.00;;;;5037046;28;20234;-73
2024/01/04 09:04:57;;;;;;;4.32;1.60;;;12.80;70.90;14.60;100020.00;;;;5035414;28;20232;-73
2024/01/04 09:07:24;;;;;;;2.35;1.52;;;12.80;70.90;14.70;100013.00;;;;5032149;28;20627;-73
2024/01/04 09:09:51;;;;;;;3.63;1.85;;;12.80;71.00;14.70;100022.00;;;;5030718;28;20188;-73
2024/01/04 09:12:18;;;;;;;2.55;1.30;;;12.80;71.00;14.70;100033.00;;;;5031201;28;20676;-73
2024/01/04 09:14:46;;;;;;;2.45;1.70;;;12.80;71.00;14.70;100027.00;;;;5039224;28;20192;-73
2024/01/04 09:17:14;;;;;;;2.65;1.73;;;12.90;71.00;14.70;100032.00;;;;5034379;28;20208;-73
2024/01/04 09:19:42;;;;;;;1.83;1.60;;;12.80;70.90;14.70;100027.00;;;;5034850;28;20200;-73
2024/01/04 09:22:09;;;;;;;2.47;1.60;;;12.80;70.90;14.70;100031.00;;;;5035135;28;20259;-73
2024/01/04 09:24:36;;;;;;;1.98;1.50;;;12.80;70.90;14.70;100030.00;;;;5035493;28;20204;-73
2024/01/04 09:27:04;;;;;;;3.13;1.45;;;12.90;70.90;14.70;100034.00;;;;5034618;28;20295;-72
2024/01/04 09:29:31;;;;;;;2.97;1.67;;;12.90;71.00;14.70;100032.00;;;;5034212;28;20303;-73
2024/01/04 09:32:00;;;;;;;3.30;1.90;;;12.90;70.90;14.70;100037.00;;;;5034768;28;20291;-73
2024/01/04 09:34:29;;;;;;;2.47;1.30;;;12.90;70.90;14.70;100039.00;;;;5034223;28;20299;-72
2024/01/04 09:36:56;;;;;;;2.20;1.42;;;12.90;70.90;14.70;100035.00;;;;5034849;28;20291;-73
2024/01/04 09:39:23;;;;;;;1.80;1.40;;;12.90;70.90;14.70;100051.00;;;;5034692;28;20224;-73
2024/01/04 09:41:53;;;;;;;1.25;1.13;;;12.90;70.90;14.70;100047.00;;;;5039388;28;20322;-73
2024/01/04 09:44:20;;;;;;;2.92;1.40;;;12.90;70.80;14.70;100055.00;;;;5034345;28;20203;-73
2024/01/04 09:46:50;;;;;;;2.20;0.90;;;12.90;70.70;14.70;100058.00;;;;5034420;28;20228;-72
2024/01/04 09:49:18;;;;;;;1.60;1.20;;;12.90;70.70;14.70;100065.00;;;;5033702;28;20279;-72
2024/01/04 09:51:47;;;;;;;3.13;1.50;;;12.90;70.70;14.70;100073.00;;;;5034681;28;20208;-73
2024/01/04 09:54:15;;;;;;;1.80;1.05;;;12.90;70.60;14.70;100069.00;;;;5033606;28;20202;-72
2024/01/04 09:56:46;;;;;;;1.13;0.93;;;12.90;70.60;14.60;100082.00;;;;5034031;28;20291;-73
2024/01/04 09:59:14;;;;;;;1.05;0.68;;;12.90;70.60;14.60;100080.00;;;;5033838;28;20204;-73
2024/01/04 10:01:41;;;;;;;1.55;1.00;;;12.90;70.50;14.60;100088.00;;;;5033764;28;20314;-73
2024/01/04 10:04:12;;;;;;;1.33;0.82;;;12.90;70.60;14.60;100087.00;;;;5034231;28;20200;-73
2024/01/04 10:06:41;;;;;;;1.95;0.90;;;12.90;70.60;14.60;100092.00;;;;5034300;28;20192;-72
2024/01/04 10:09:29;;;;;;;4.10;1.40;;;12.90;70.60;14.50;100088.00;;;;5033678;28;20677;-72
2024/01/04 10:12:05;;;;;;;2.10;0.95;;;12.90;70.70;14.60;100095.00;;;;5033756;28;20197;-73
2024/01/04 10:14:33;;;;;;;2.17;1.20;;;12.90;70.80;14.70;100089.00;;;;5033651;28;20661;-72
2024/01/04 10:17:01;;;;;;;0.82;0.82;;;12.90;70.90;14.70;100093.00;;;;5034159;28;20216;-73
2024/01/04 10:19:30;;;;;;;1.40;1.15;;;12.90;71.00;14.70;100088.00;;;;5033642;28;20209;-73
2024/01/04 10:22:02;;;;;;;1.63;0.93;;;13.00;71.10;14.70;100101.00;;;;5034172;28;20224;-73
2024/01/04 10:24:35;;;;;;;1.45;1.00;;;13.00;71.10;14.80;100104.00;;;;5033109;28;20291;-72
2024/01/04 10:27:02;;;;;;;1.33;1.05;;;13.00;71.00;14.80;100102.00;;;;5030320;28;20204;-73
2024/01/04 10:29:31;;;;;;;1.30;0.90;;;13.00;71.00;14.80;100111.00;;;;5033375;28;20203;-72
2024/01/04 10:31:59;;;;;;;1.45;0.75;;;13.00;71.00;14.90;100099.00;;;;5033493;28;20192;-72
2024/01/04 10:34:27;;;;;;;3.58;0.77;;;13.10;71.10;14.90;100106.00;;;;5033942;28;20200;-73
2024/01/04 10:36:55;;;;;;;2.85;0.98;;;13.10;71.10;14.90;100119.00;;;;5033500;28;20733;-72
2024/01/04 10:39:22;;;;;;;4.53;1.50;;;13.10;71.10;14.90;100108.00;;;;5031821;28;20688;-72
2024/01/04 10:41:59;;;;;;;0.93;0.73;;;13.10;71.00;14.80;100101.00;;;;5013946;28;20315;-72
2024/01/04 10:44:27;;;;;;;2.00;0.73;;;13.10;70.90;14.90;100099.00;;;;5023653;28;20204;-72
2024/01/04 10:46:56;;;;;;;2.05;0.90;;;13.20;71.00;15.00;100101.00;;;;5033132;28;20207;-74
2024/01/04 10:49:24;;;;;;;1.77;0.70;;;13.20;71.10;15.00;100100.00;;;;5023817;28;20291;-73
2024/01/04 10:51:56;;;;;;;2.88;0.88;;;13.20;71.10;15.00;100095.00;;;;5033344;28;20561;-72
2024/01/04 10:54:32;;;;;;;4.03;0.90;;;13.30;71.20;15.00;100100.00;;;;5023284;28;20203;-73